sensor_id;sensor_type;location;lat;lon;timestamp;pressure;altitude;pressure_sealevel;temperature;humidity
64158;BME280;50449;51.528;5.076;2023-11-18T00:00:33;102265.47;;;9.28;65.32
64158;BME280;50449;51.528;5.076;2023-11-18T00:02:59;102266.50;;;9.27;65.33
64158;BME280;50449;51.528;5.076;2023-11-18T00:05:24;102271.88;;;9.27;65.40
64158;BME280;50449;51.528;5.076;2023-11-18T00:07:50;102267.72;;;9.24;65.32
64158;BME280;50449;51.528;5.076;2023-11-18T00:10:15;102270.41;;;9.24;65.35
64158;BME280;50449;51.528;5.076;2023-11-18T00:12:41;102273.13;;;9.24;65.41
64158;BME280;50449;51.528;5.076;2023-11-18T00:15:07;102273.31;;;9.23;65.28
64158;BME280;50449;51.528;5.076;2023-11-18T00:17:34;102270.63;;;9.23;65.41
64158;BME280;50449;51.528;5.076;2023-11-18T00:19:59;102269.81;;;9.22;65.33
64158;BME280;50449;51.528;5.076;2023-11-18T00:22:25;102259.84;;;9.23;65.37
64158;BME280;50449;51.528;5.076;2023-11-18T00:24:50;102263.56;;;9.22;65.28
64158;BME280;50449;51.528;5.076;2023-11-18T00:27:17;102253.81;;;9.21;65.43
64158;BME280;50449;51.528;5.076;2023-11-18T00:29:42;102246.78;;;9.20;65.38
64158;BME280;50449;51.528;5.076;2023-11-18T00:32:09;102243.03;;;9.21;65.54
64158;BME280;50449;51.528;5.076;2023-11-18T00:34:34;102250.28;;;9.20;65.24
64158;BME280;50449;51.528;5.076;2023-11-18T00:36:59;102252.16;;;9.20;65.38
64158;BME280;50449;51.528;5.076;2023-11-18T00:39:25;102245.91;;;9.19;65.36
64158;BME280;50449;51.528;5.076;2023-11-18T00:41:52;102241.38;;;9.20;65.31
64158;BME280;50449;51.528;5.076;2023-11-18T00:44:17;102246.78;;;9.20;65.45
64158;BME280;50449;51.528;5.076;2023-11-18T00:46:43;102248.59;;;9.19;65.14
64158;BME280;50449;51.528;5.076;2023-11-18T00:49:08;102248.00;;;9.17;65.33
64158;BME280;50449;51.528;5.076;2023-11-18T00:51:33;102243.44;;;9.18;65.27
64158;BME280;50449;51.528;5.076;2023-11-18T00:53:59;102246.31;;;9.16;65.48
64158;BME280;50449;51.528;5.076;2023-11-18T00:56:26;102257.28;;;9.15;65.33
64158;BME280;50449;51.528;5.076;2023-11-18T00:58:54;102257.28;;;9.15;65.59
64158;BME280;50449;51.528;5.076;2023-11-18T01:01:19;102264.53;;;9.14;65.25
64158;BME280;50449;51.528;5.076;2023-11-18T01:03:44;102257.50;;;9.13;65.35
64158;BME280;50449;51.528;5.076;2023-11-18T01:06:10;102262.06;;;9.13;65.32
64158;BME280;50449;51.528;5.076;2023-11-18T01:08:37;102263.06;;;9.12;65.30
64158;BME280;50449;51.528;5.076;2023-11-18T01:11:02;102267.63;;;9.11;65.47
64158;BME280;50449;51.528;5.076;2023-11-18T01:13:29;102268.47;;;9.12;65.43
64158;BME280;50449;51.528;5.076;2023-11-18T01:15:54;102264.09;;;9.10;65.29
64158;BME280;50449;51.528;5.076;2023-11-18T01:18:20;102262.41;;;9.09;65.46
64158;BME280;50449;51.528;5.076;2023-11-18T01:20:45;102266.97;;;9.09;65.38
64158;BME280;50449;51.528;5.076;2023-11-18T01:23:12;102267.19;;;9.07;65.25
64158;BME280;50449;51.528;5.076;2023-11-18T01:25:37;102268.03;;;9.08;65.21
64158;BME280;50449;51.528;5.076;2023-11-18T01:28:02;102267.19;;;9.07;65.43
64158;BME280;50449;51.528;5.076;2023-11-18T01:30:29;102267.19;;;9.07;65.50
64158;BME280;50449;51.528;5.076;2023-11-18T01:32:54;102269.03;;;9.07;65.38
64158;BME280;50449;51.528;5.076;2023-11-18T01:35:19;102269.03;;;9.07;65.33
64158;BME280;50449;51.528;5.076;2023-11-18T01:37:45;102267.38;;;9.06;65.28
64158;BME280;50449;51.528;5.076;2023-11-18T01:40:10;102271.13;;;9.05;65.30
64158;BME280;50449;51.528;5.076;2023-11-18T01:42:44;102266.75;;;9.04;65.35
64158;BME280;50449;51.528;5.076;2023-11-18T01:45:11;102281.03;;;9.04;65.43
64158;BME280;50449;51.528;5.076;2023-11-18T01:47:36;102278.34;;;9.04;65.29
64158;BME280;50449;51.528;5.076;2023-11-18T01:50:02;102274.00;;;9.03;65.13
64158;BME280;50449;51.528;5.076;2023-11-18T01:52:31;102276.88;;;9.02;65.38
64158;BME280;50449;51.528;5.076;2023-11-18T01:54:56;102271.47;;;9.02;65.39
64158;BME280;50449;51.528;5.076;2023-11-18T01:57:22;102268.78;;;9.02;65.24
64158;BME280;50449;51.528;5.076;2023-11-18T01:59:47;102256.34;;;9.01;65.44
64158;BME280;50449;51.528;5.076;2023-11-18T02:02:13;102260.91;;;9.00;65.48
64158;BME280;50449;51.528;5.076;2023-11-18T02:04:38;102267.31;;;8.99;65.37
64158;BME280;50449;51.528;5.076;2023-11-18T02:07:04;102268.19;;;9.00;65.38
64158;BME280;50449;51.528;5.076;2023-11-18T02:09:34;102259.22;;;8.99;65.17
64158;BME280;50449;51.528;5.076;2023-11-18T02:14:38;102262.97;;;8.98;65.29
64158;BME280;50449;51.528;5.076;2023-11-18T02:17:04;102272.91;;;8.98;65.25
64158;BME280;50449;51.528;5.076;2023-11-18T02:19:30;102269.41;;;8.97;65.30
64158;BME280;50449;51.528;5.076;2023-11-18T02:21:56;102273.75;;;8.98;65.26
64158;BME280;50449;51.528;5.076;2023-11-18T02:24:26;102272.91;;;8.98;65.19
64158;BME280;50449;51.528;5.076;2023-11-18T02:26:52;102278.31;;;8.98;65.39
64158;BME280;50449;51.528;5.076;2023-11-18T02:29:17;102274.78;;;8.97;65.35
64158;BME280;50449;51.528;5.076;2023-11-18T02:31:43;102277.47;;;8.97;65.30
64158;BME280;50449;51.528;5.076;2023-11-18T02:34:14;102269.59;;;8.96;65.26
64158;BME280;50449;51.528;5.076;2023-11-18T02:36:43;102266.88;;;8.96;65.31
64158;BME280;50449;51.528;5.076;2023-11-18T02:39:26;102266.88;;;8.96;65.29
64158;BME280;50449;51.528;5.076;2023-11-18T02:41:53;102274.16;;;8.95;65.18
64158;BME280;50449;51.528;5.076;2023-11-18T02:44:21;102267.72;;;8.96;65.47
64158;BME280;50449;51.528;5.076;2023-11-18T02:46:48;102253.41;;;8.96;65.42
64158;BME280;50449;51.528;5.076;2023-11-18T02:49:13;102235.38;;;8.96;65.29
64158;BME280;50449;51.528;5.076;2023-11-18T02:51:39;102240.75;;;8.96;65.28
64158;BME280;50449;51.528;5.076;2023-11-18T02:54:05;102240.97;;;8.95;65.51
64158;BME280;50449;51.528;5.076;2023-11-18T02:56:31;102234.72;;;8.94;65.39
64158;BME280;50449;51.528;5.076;2023-11-18T02:58:57;102237.41;;;8.94;65.37
64158;BME280;50449;51.528;5.076;2023-11-18T03:01:22;102238.47;;;8.93;65.18
64158;BME280;50449;51.528;5.076;2023-11-18T03:03:50;102226.03;;;8.92;65.34
64158;BME280;50449;51.528;5.076;2023-11-18T03:06:15;102230.38;;;8.93;65.27
64158;BME280;50449;51.528;5.076;2023-11-18T03:08:40;102217.94;;;8.92;65.38
64158;BME280;50449;51.528;5.076;2023-11-18T03:11:06;102213.38;;;8.93;65.58
64158;BME280;50449;51.528;5.076;2023-11-18T03:13:34;102210.69;;;8.93;65.39
64158;BME280;50449;51.528;5.076;2023-11-18T03:15:59;102221.47;;;8.93;65.48
64158;BME280;50449;51.528;5.076;2023-11-18T03:18:25;102217.94;;;8.92;65.57
64158;BME280;50449;51.528;5.076;2023-11-18T03:20:51;102217.94;;;8.92;65.32
64158;BME280;50449;51.528;5.076;2023-11-18T03:23:16;102220.81;;;8.91;65.50
64158;BME280;50449;51.528;5.076;2023-11-18T03:25:41;102213.56;;;8.91;65.53
64158;BME280;50449;51.528;5.076;2023-11-18T03:28:07;102210.88;;;8.91;65.57
64158;BME280;50449;51.528;5.076;2023-11-18T03:30:32;102213.56;;;8.91;65.45
64158;BME280;50449;51.528;5.076;2023-11-18T03:32:58;102202.78;;;8.91;65.55
64158;BME280;50449;51.528;5.076;2023-11-18T03:35:23;102204.66;;;8.91;65.41
64158;BME280;50449;51.528;5.076;2023-11-18T03:37:49;102190.34;;;8.90;65.43
64158;BME280;50449;51.528;5.076;2023-11-18T03:40:14;102196.56;;;8.91;65.44
64158;BME280;50449;51.528;5.076;2023-11-18T03:42:40;102192.00;;;8.91;65.43
64158;BME280;50449;51.528;5.076;2023-11-18T03:45:06;102187.66;;;8.90;65.34
64158;BME280;50449;51.528;5.076;2023-11-18T03:47:31;102182.28;;;8.90;65.63
64158;BME280;50449;51.528;5.076;2023-11-18T03:49:58;102183.09;;;8.91;65.36
64158;BME280;50449;51.528;5.076;2023-11-18T03:52:24;102176.06;;;8.90;65.58
64158;BME280;50449;51.528;5.076;2023-11-18T03:54:49;102175.19;;;8.89;65.55
64158;BME280;50449;51.528;5.076;2023-11-18T03:57:14;102173.53;;;8.88;65.41
64158;BME280;50449;51.528;5.076;2023-11-18T03:59:40;102163.41;;;8.90;65.37
64158;BME280;50449;51.528;5.076;2023-11-18T04:02:06;102149.28;;;8.88;65.65
64158;BME280;50449;51.528;5.076;2023-11-18T04:04:31;102140.16;;;8.89;65.33
64158;BME280;50449;51.528;5.076;2023-11-18T04:06:56;102146.41;;;8.90;65.54
64158;BME280;50449;51.528;5.076;2023-11-18T04:09:22;102147.44;;;8.88;65.45
64158;BME280;50449;51.528;5.076;2023-11-18T04:11:47;102154.69;;;8.88;65.28
64158;BME280;50449;51.528;5.076;2023-11-18T04:14:12;102155.50;;;8.88;65.40
64158;BME280;50449;51.528;5.076;2023-11-18T04:16:38;102160.06;;;8.88;65.41
64158;BME280;50449;51.528;5.076;2023-11-18T04:19:03;102160.06;;;8.88;65.37
64158;BME280;50449;51.528;5.076;2023-11-18T04:21:28;102153.84;;;8.87;65.54
64158;BME280;50449;51.528;5.076;2023-11-18T04:23:54;102150.34;;;8.87;65.47
64158;BME280;50449;51.528;5.076;2023-11-18T04:26:20;102140.38;;;8.87;65.46
64158;BME280;50449;51.528;5.076;2023-11-18T04:28:45;102139.56;;;8.87;65.51
64158;BME280;50449;51.528;5.076;2023-11-18T04:31:10;102132.28;;;8.87;65.64
64158;BME280;50449;51.528;5.076;2023-11-18T04:33:36;102116.97;;;8.88;65.40
64158;BME280;50449;51.528;5.076;2023-11-18T04:36:01;102112.59;;;8.87;65.41
64158;BME280;50449;51.528;5.076;2023-11-18T04:38:27;102118.81;;;8.87;65.55
64158;BME280;50449;51.528;5.076;2023-11-18T04:40:53;102115.31;;;8.87;65.33
64158;BME280;50449;51.528;5.076;2023-11-18T04:43:19;102110.75;;;8.87;65.64
64158;BME280;50449;51.528;5.076;2023-11-18T04:45:45;102116.31;;;8.86;65.43
64158;BME280;50449;51.528;5.076;2023-11-18T04:48:10;102110.75;;;8.87;65.48
64158;BME280;50449;51.528;5.076;2023-11-18T04:50:35;102109.06;;;8.86;65.39
64158;BME280;50449;51.528;5.076;2023-11-18T04:53:01;102114.44;;;8.86;65.69
64158;BME280;50449;51.528;5.076;2023-11-18T04:55:28;102106.59;;;8.85;65.57
64158;BME280;50449;51.528;5.076;2023-11-18T04:57:53;102106.59;;;8.85;65.60
64158;BME280;50449;51.528;5.076;2023-11-18T05:00:20;102105.53;;;8.86;65.52
64158;BME280;50449;51.528;5.076;2023-11-18T05:02:45;102089.59;;;8.84;65.43
64158;BME280;50449;51.528;5.076;2023-11-18T05:05:14;102070.91;;;8.83;65.57
64158;BME280;50449;51.528;5.076;2023-11-18T05:07:42;102075.25;;;8.84;65.54
64158;BME280;50449;51.528;5.076;2023-11-18T05:10:07;102075.25;;;8.84;65.64
64158;BME280;50449;51.528;5.076;2023-11-18T05:12:33;102076.13;;;8.84;65.65
64158;BME280;50449;51.528;5.076;2023-11-18T05:14:58;102067.19;;;8.84;65.56
64158;BME280;50449;51.528;5.076;2023-11-18T05:17:23;102072.38;;;8.85;65.51
64158;BME280;50449;51.528;5.076;2023-11-18T05:19:49;102062.63;;;8.84;65.39
64158;BME280;50449;51.528;5.076;2023-11-18T05:22:14;102063.47;;;8.85;65.69
64158;BME280;50449;51.528;5.076;2023-11-18T05:24:39;102065.34;;;8.84;65.54
64158;BME280;50449;51.528;5.076;2023-11-18T05:27:05;102060.78;;;8.85;65.72
64158;BME280;50449;51.528;5.076;2023-11-18T05:29:30;102058.09;;;8.85;65.36
64158;BME280;50449;51.528;5.076;2023-11-18T05:31:56;102062.63;;;8.84;65.44
64158;BME280;50449;51.528;5.076;2023-11-18T05:34:21;102060.97;;;8.83;65.42
64158;BME280;50449;51.528;5.076;2023-11-18T05:36:47;102059.09;;;8.84;65.50
64158;BME280;50449;51.528;5.076;2023-11-18T05:39:12;102048.53;;;8.82;65.40
64158;BME280;50449;51.528;5.076;2023-11-18T05:41:40;102051.00;;;8.84;65.49
64158;BME280;50449;51.528;5.076;2023-11-18T05:44:06;102052.06;;;8.83;65.38
64158;BME280;50449;51.528;5.076;2023-11-18T05:46:33;102054.75;;;8.83;65.66
64158;BME280;50449;51.528;5.076;2023-11-18T05:49:01;102047.31;;;8.85;65.48
64158;BME280;50449;51.528;5.076;2023-11-18T05:51:27;102043.78;;;8.84;65.57
64158;BME280;50449;51.528;5.076;2023-11-18T05:53:54;102033.19;;;8.83;65.58
64158;BME280;50449;51.528;5.076;2023-11-18T05:56:20;102028.63;;;8.83;65.53
64158;BME280;50449;51.528;5.076;2023-11-18T05:58:49;102027.81;;;8.83;65.46
64158;BME280;50449;51.528;5.076;2023-11-18T06:01:15;102017.03;;;8.83;65.71
64158;BME280;50449;51.528;5.076;2023-11-18T06:03:41;102011.63;;;8.83;65.76
64158;BME280;50449;51.528;5.076;2023-11-18T06:06:07;101997.97;;;8.84;65.52
64158;BME280;50449;51.528;5.076;2023-11-18T06:08:36;101994.44;;;8.84;65.43
64158;BME280;50449;51.528;5.076;2023-11-18T06:11:06;102002.72;;;8.82;65.62
64158;BME280;50449;51.528;5.076;2023-11-18T06:13:38;102015.34;;;8.82;65.59
64158;BME280;50449;51.528;5.076;2023-11-18T06:16:07;102026.13;;;8.82;65.67
64158;BME280;50449;51.528;5.076;2023-11-18T06:18:32;102026.13;;;8.82;65.72
64158;BME280;50449;51.528;5.076;2023-11-18T06:20:58;102021.59;;;8.82;65.47
64158;BME280;50449;51.528;5.076;2023-11-18T06:23:23;102011.63;;;8.83;65.68
64158;BME280;50449;51.528;5.076;2023-11-18T06:25:48;102008.75;;;8.84;65.79
64158;BME280;50449;51.528;5.076;2023-11-18T06:28:13;102004.19;;;8.85;65.58
64158;BME280;50449;51.528;5.076;2023-11-18T06:30:40;102012.28;;;8.85;65.54
64158;BME280;50449;51.528;5.076;2023-11-18T06:33:06;102013.28;;;8.84;65.58
64158;BME280;50449;51.528;5.076;2023-11-18T06:35:32;102003.38;;;8.84;65.58
64158;BME280;50449;51.528;5.076;2023-11-18T06:37:59;101999.63;;;8.85;65.47
64158;BME280;50449;51.528;5.076;2023-11-18T06:40:24;101990.72;;;8.85;65.43
64158;BME280;50449;51.528;5.076;2023-11-18T06:42:52;101997.75;;;8.86;65.55
64158;BME280;50449;51.528;5.076;2023-11-18T06:45:19;101991.53;;;8.85;65.71
64158;BME280;50449;51.528;5.076;2023-11-18T06:47:47;101988.03;;;8.85;65.58
64158;BME280;50449;51.528;5.076;2023-11-18T06:50:14;101990.72;;;8.85;65.60
64158;BME280;50449;51.528;5.076;2023-11-18T06:52:40;101997.97;;;8.84;65.67
64158;BME280;50449;51.528;5.076;2023-11-18T06:55:10;101996.09;;;8.85;65.66
64158;BME280;50449;51.528;5.076;2023-11-18T06:57:36;101994.25;;;8.85;65.62
64158;BME280;50449;51.528;5.076;2023-11-18T07:00:01;102000.66;;;8.84;65.64
64158;BME280;50449;51.528;5.076;2023-11-18T07:02:32;102003.38;;;8.84;65.52
64158;BME280;50449;51.528;5.076;2023-11-18T07:04:58;101994.44;;;8.84;65.56
64158;BME280;50449;51.528;5.076;2023-11-18T07:07:23;101993.41;;;8.85;65.59
64158;BME280;50449;51.528;5.076;2023-11-18T07:09:48;101997.97;;;8.84;65.64
64158;BME280;50449;51.528;5.076;2023-11-18T07:12:14;101989.91;;;8.84;65.75
64158;BME280;50449;51.528;5.076;2023-11-18T07:14:40;101988.84;;;8.85;65.58
64158;BME280;50449;51.528;5.076;2023-11-18T07:17:05;101985.34;;;8.85;65.45
64158;BME280;50449;51.528;5.076;2023-11-18T07:19:30;101989.69;;;8.86;65.57
64158;BME280;50449;51.528;5.076;2023-11-18T07:21:58;101995.06;;;8.86;65.41
64158;BME280;50449;51.528;5.076;2023-11-18T07:24:24;101996.09;;;8.85;65.57
64158;BME280;50449;51.528;5.076;2023-11-18T07:26:50;101992.38;;;8.86;65.67
64158;BME280;50449;51.528;5.076;2023-11-18T07:29:16;101996.09;;;8.85;65.65
64158;BME280;50449;51.528;5.076;2023-11-18T07:31:42;101993.19;;;8.86;65.75
64158;BME280;50449;51.528;5.076;2023-11-18T07:34:08;102002.31;;;8.85;65.66
64158;BME280;50449;51.528;5.076;2023-11-18T07:36:33;101999.63;;;8.85;65.54
64158;BME280;50449;51.528;5.076;2023-11-18T07:38:59;101996.09;;;8.85;65.61
64158;BME280;50449;51.528;5.076;2023-11-18T07:41:26;101991.53;;;8.85;65.83
64158;BME280;50449;51.528;5.076;2023-11-18T07:43:55;101995.88;;;8.86;65.59
64158;BME280;50449;51.528;5.076;2023-11-18T07:46:21;101991.34;;;8.87;65.53
64158;BME280;50449;51.528;5.076;2023-11-18T07:48:47;101995.06;;;8.86;65.44
64158;BME280;50449;51.528;5.076;2023-11-18T07:51:13;101990.50;;;8.86;65.77
64158;BME280;50449;51.528;5.076;2023-11-18T07:53:39;101986.97;;;8.86;65.59
64158;BME280;50449;51.528;5.076;2023-11-18T07:56:04;101987.19;;;8.84;65.75
64158;BME280;50449;51.528;5.076;2023-11-18T07:58:31;101988.03;;;8.85;65.76
64158;BME280;50449;51.528;5.076;2023-11-18T08:00:57;101993.19;;;8.86;65.64
64158;BME280;50449;51.528;5.076;2023-11-18T08:03:24;101997.75;;;8.86;65.71
64158;BME280;50449;51.528;5.076;2023-11-18T08:05:49;101996.75;;;8.87;65.46
64158;BME280;50449;51.528;5.076;2023-11-18T08:08:16;101994.06;;;8.87;65.78
64158;BME280;50449;51.528;5.076;2023-11-18T08:10:42;101978.91;;;8.86;65.55
64158;BME280;50449;51.528;5.076;2023-11-18T08:13:08;101982.41;;;8.86;65.91
64158;BME280;50449;51.528;5.076;2023-11-18T08:15:34;101973.50;;;8.86;65.78
64158;BME280;50449;51.528;5.076;2023-11-18T08:18:00;101980.56;;;8.87;65.81
64158;BME280;50449;51.528;5.076;2023-11-18T08:20:25;101975.19;;;8.87;65.75
64158;BME280;50449;51.528;5.076;2023-11-18T08:22:51;101969.81;;;8.87;65.75
64158;BME280;50449;51.528;5.076;2023-11-18T08:25:16;101965.25;;;8.87;65.56
64158;BME280;50449;51.528;5.076;2023-11-18T08:27:43;101969.56;;;8.88;65.67
64158;BME280;50449;51.528;5.076;2023-11-18T08:30:08;101971.44;;;8.88;65.69
64158;BME280;50449;51.528;5.076;2023-11-18T08:32:38;101973.31;;;8.87;65.65
64158;BME280;50449;51.528;5.076;2023-11-18T08:35:07;101970.63;;;8.87;65.73
64158;BME280;50449;51.528;5.076;2023-11-18T08:37:36;101965.25;;;8.87;65.74
64158;BME280;50449;51.528;5.076;2023-11-18T08:40:02;101968.75;;;8.88;65.92
64158;BME280;50449;51.528;5.076;2023-11-18T08:42:28;101949.91;;;8.88;65.78
64158;BME280;50449;51.528;5.076;2023-11-18T08:44:54;101951.75;;;8.87;65.67
64158;BME280;50449;51.528;5.076;2023-11-18T08:47:20;101956.09;;;8.88;65.70
64158;BME280;50449;51.528;5.076;2023-11-18T08:49:46;101950.94;;;8.87;65.74
64158;BME280;50449;51.528;5.076;2023-11-18T08:52:11;101942.00;;;8.86;65.86
64158;BME280;50449;51.528;5.076;2023-11-18T08:54:38;101935.59;;;8.87;65.70
64158;BME280;50449;51.528;5.076;2023-11-18T08:57:07;101932.06;;;8.87;65.93
64158;BME280;50449;51.528;5.076;2023-11-18T08:59:49;101933.72;;;8.88;65.81
64158;BME280;50449;51.528;5.076;2023-11-18T09:02:14;101926.88;;;8.85;66.06
64158;BME280;50449;51.528;5.076;2023-11-18T09:04:42;101933.91;;;8.86;65.97
64158;BME280;50449;51.528;5.076;2023-11-18T09:07:08;101927.50;;;8.87;66.00
64158;BME280;50449;51.528;5.076;2023-11-18T09:09:35;101928.34;;;8.88;65.80
64158;BME280;50449;51.528;5.076;2023-11-18T09:12:00;101906.78;;;8.88;66.01
64158;BME280;50449;51.528;5.076;2023-11-18T09:14:27;101912.81;;;8.90;66.22
64158;BME280;50449;51.528;5.076;2023-11-18T09:16:53;101898.69;;;8.88;66.23
64158;BME280;50449;51.528;5.076;2023-11-18T09:19:21;101880.66;;;8.88;66.13
64158;BME280;50449;51.528;5.076;2023-11-18T09:21:46;101871.75;;;8.88;66.16
64158;BME280;50449;51.528;5.076;2023-11-18T09:24:12;101872.56;;;8.88;66.18
64158;BME280;50449;51.528;5.076;2023-11-18T09:26:38;101869.06;;;8.88;66.23
64158;BME280;50449;51.528;5.076;2023-11-18T09:29:04;101857.22;;;8.89;66.34
64158;BME280;50449;51.528;5.076;2023-11-18T09:31:33;101856.41;;;8.88;66.24
64158;BME280;50449;51.528;5.076;2023-11-18T09:33:59;101864.50;;;8.88;66.24
64158;BME280;50449;51.528;5.076;2023-11-18T09:36:24;101854.53;;;8.89;66.28
64158;BME280;50449;51.528;5.076;2023-11-18T09:38:53;101867.81;;;8.91;66.27
64158;BME280;50449;51.528;5.076;2023-11-18T09:41:19;101869.47;;;8.92;66.23
64158;BME280;50449;51.528;5.076;2023-11-18T09:43:49;101869.28;;;8.93;66.24
64158;BME280;50449;51.528;5.076;2023-11-18T09:46:25;101853.09;;;8.93;66.40
64158;BME280;50449;51.528;5.076;2023-11-18T09:48:52;101852.06;;;8.94;66.25
64158;BME280;50449;51.528;5.076;2023-11-18T09:53:48;101858.09;;;8.96;66.16
64158;BME280;50449;51.528;5.076;2023-11-18T09:56:19;101852.69;;;8.96;66.39
64158;BME280;50449;51.528;5.076;2023-11-18T09:58:59;101834.66;;;8.97;66.21
64158;BME280;50449;51.528;5.076;2023-11-18T10:01:28;101832.81;;;8.97;66.32
64158;BME280;50449;51.528;5.076;2023-11-18T10:03:58;101823.69;;;8.98;66.32
64158;BME280;50449;51.528;5.076;2023-11-18T10:06:23;101804.81;;;8.98;66.39
64158;BME280;50449;51.528;5.076;2023-11-18T10:08:53;101797.56;;;8.99;66.51
64158;BME280;50449;51.528;5.076;2023-11-18T10:11:18;101802.13;;;8.98;66.65
64158;BME280;50449;51.528;5.076;2023-11-18T10:13:48;101812.91;;;8.98;66.46
64158;BME280;50449;51.528;5.076;2023-11-18T10:16:14;101798.59;;;8.98;66.66
64158;BME280;50449;51.528;5.076;2023-11-18T10:18:39;101802.13;;;8.98;66.59
64158;BME280;50449;51.528;5.076;2023-11-18T10:21:10;101795.69;;;8.99;66.64
64158;BME280;50449;51.528;5.076;2023-11-18T10:23:36;101788.22;;;9.01;66.69
64158;BME280;50449;51.528;5.076;2023-11-18T10:26:03;101799.84;;;9.02;66.74
64158;BME280;50449;51.528;5.076;2023-11-18T10:30:57;101802.34;;;9.03;66.75
64158;BME280;50449;51.528;5.076;2023-11-18T10:33:34;101793.19;;;9.04;66.81
64158;BME280;50449;51.528;5.076;2023-11-18T10:36:01;101781.41;;;9.05;66.70
64158;BME280;50449;51.528;5.076;2023-11-18T10:38:30;101781.19;;;9.07;67.32
64158;BME280;50449;51.528;5.076;2023-11-18T10:40:56;101771.25;;;9.07;67.04
64158;BME280;50449;51.528;5.076;2023-11-18T10:43:21;101765.63;;;9.09;67.03
64158;BME280;50449;51.528;5.076;2023-11-18T10:45:52;101764.59;;;9.10;67.29
64158;BME280;50449;51.528;5.076;2023-11-18T10:48:28;101761.06;;;9.09;67.09
64158;BME280;50449;51.528;5.076;2023-11-18T10:50:54;101761.06;;;9.09;67.01
64158;BME280;50449;51.528;5.076;2023-11-18T10:53:19;101760.25;;;9.09;67.09
64158;BME280;50449;51.528;5.076;2023-11-18T10:55:46;101741.19;;;9.10;67.02
64158;BME280;50449;51.528;5.076;2023-11-18T10:58:11;101728.72;;;9.09;67.14
64158;BME280;50449;51.528;5.076;2023-11-18T11:00:45;101747.38;;;9.11;66.98
64158;BME280;50449;51.528;5.076;2023-11-18T11:03:12;101735.16;;;9.08;67.19
64158;BME280;50449;51.528;5.076;2023-11-18T11:05:39;101738.47;;;9.10;67.30
64158;BME280;50449;51.528;5.076;2023-11-18T11:08:06;101723.13;;;9.11;67.19
64158;BME280;50449;51.528;5.076;2023-11-18T11:10:33;101712.97;;;9.13;66.96
64158;BME280;50449;51.528;5.076;2023-11-18T11:13:00;101696.81;;;9.13;66.96
64158;BME280;50449;51.528;5.076;2023-11-18T11:15:30;101691.19;;;9.15;67.05
64158;BME280;50449;51.528;5.076;2023-11-18T11:17:58;101680.41;;;9.15;66.99
64158;BME280;50449;51.528;5.076;2023-11-18T11:20:34;101661.53;;;9.15;67.16
64158;BME280;50449;51.528;5.076;2023-11-18T11:25:34;101646.41;;;9.14;67.38
64158;BME280;50449;51.528;5.076;2023-11-18T11:28:11;101631.88;;;9.15;67.43
64158;BME280;50449;51.528;5.076;2023-11-18T11:30:43;101618.41;;;9.15;67.50
64158;BME280;50449;51.528;5.076;2023-11-18T11:33:14;101619.88;;;9.17;67.29
64158;BME280;50449;51.528;5.076;2023-11-18T11:35:45;101612.38;;;9.19;67.14
64158;BME280;50449;51.528;5.076;2023-11-18T11:38:13;101592.69;;;9.19;67.17
64158;BME280;50449;51.528;5.076;2023-11-18T11:40:41;101585.22;;;9.21;67.77
64158;BME280;50449;51.528;5.076;2023-11-18T11:43:07;101570.94;;;9.20;67.63
64158;BME280;50449;51.528;5.076;2023-11-18T11:45:35;101555.56;;;9.21;67.60
64158;BME280;50449;51.528;5.076;2023-11-18T11:48:01;101547.50;;;9.21;67.47
64158;BME280;50449;51.528;5.076;2023-11-18T11:53:15;101546.44;;;9.22;67.67
64158;BME280;50449;51.528;5.076;2023-11-18T11:55:49;101549.75;;;9.24;67.67
64158;BME280;50449;51.528;5.076;2023-11-18T11:58:25;101546.03;;;9.25;67.56
64158;BME280;50449;51.528;5.076;2023-11-18T12:00:50;101546.03;;;9.25;67.72
64158;BME280;50449;51.528;5.076;2023-11-18T12:03:15;101537.72;;;9.26;67.78
64158;BME280;50449;51.528;5.076;2023-11-18T12:05:42;101530.25;;;9.28;67.53
64158;BME280;50449;51.528;5.076;2023-11-18T12:08:08;101530.25;;;9.28;67.74
64158;BME280;50449;51.528;5.076;2023-11-18T12:10:38;101518.41;;;9.29;67.67
64158;BME280;50449;51.528;5.076;2023-11-18T12:13:06;101528.97;;;9.31;67.95
64158;BME280;50449;51.528;5.076;2023-11-18T12:18:29;101518.81;;;9.33;67.89
64158;BME280;50449;51.528;5.076;2023-11-18T12:20:57;101500.75;;;9.34;67.91
64158;BME280;50449;51.528;5.076;2023-11-18T12:23:26;101496.81;;;9.36;68.00
64158;BME280;50449;51.528;5.076;2023-11-18T12:25:52;101506.53;;;9.37;67.84
64158;BME280;50449;51.528;5.076;2023-11-18T12:28:25;101512.53;;;9.39;67.86
64158;BME280;50449;51.528;5.076;2023-11-18T12:30:54;101501.56;;;9.41;67.92
64158;BME280;50449;51.528;5.076;2023-11-18T12:40:54;101428.75;;;9.41;67.99
64158;BME280;50449;51.528;5.076;2023-11-18T12:48:31;101398.84;;;9.42;68.00
64158;BME280;50449;51.528;5.076;2023-11-18T12:50:57;101381.66;;;9.43;68.06
64158;BME280;50449;51.528;5.076;2023-11-18T12:53:23;101378.97;;;9.43;68.14
64158;BME280;50449;51.528;5.076;2023-11-18T12:55:53;101365.47;;;9.43;68.30
64158;BME280;50449;51.528;5.076;2023-11-18T12:58:18;101356.31;;;9.44;68.35
64158;BME280;50449;51.528;5.076;2023-11-18T13:00:44;101359.84;;;9.45;68.19
64158;BME280;50449;51.528;5.076;2023-11-18T13:03:11;101356.94;;;9.46;68.20
64158;BME280;50449;51.528;5.076;2023-11-18T13:05:40;101345.09;;;9.47;68.17
64158;BME280;50449;51.528;5.076;2023-11-18T13:08:05;101352.38;;;9.47;68.28
64158;BME280;50449;51.528;5.076;2023-11-18T13:10:32;101346.75;;;9.48;68.09
64158;BME280;50449;51.528;5.076;2023-11-18T13:12:57;101335.16;;;9.48;68.26
64158;BME280;50449;51.528;5.076;2023-11-18T13:15:24;101334.09;;;9.49;68.15
64158;BME280;50449;51.528;5.076;2023-11-18T13:17:59;101327.69;;;9.50;68.34
64158;BME280;50449;51.528;5.076;2023-11-18T13:20:25;101323.72;;;9.52;68.39
64158;BME280;50449;51.528;5.076;2023-11-18T13:22:51;101304.84;;;9.52;68.28
64158;BME280;50449;51.528;5.076;2023-11-18T13:25:17;101291.94;;;9.54;68.12